Date,TemperatureHighF,TemperatureAvgF,TemperatureLowF,DewpointHighF,DewpointAvgF,DewpointLowF,HumidityHigh,HumidityAvg,HumidityLow,PressureMaxIn,PressureMinIn,WindSpeedMaxMPH,WindSpeedAvgMPH,GustSpeedMaxMPH,PrecipitationSumIn
2013-1-1,50,48,42,50,47,41,98,98,98,29.91,29.77,4,0,0,1.74
2013-1-2,47,42,39,47,41,38,98,98,98,30.02,29.86,12,2,0,0.00
2013-1-3,45,37,26,44,36,25,98,98,93,30.19,29.99,7,2,0,0.00
2013-1-4,50,33,22,50,33,22,98,97,82,30.25,30.15,10,1,0,0.00
2013-1-5,52,37,24,47,35,24,98,94,73,30.19,30.04,5,1,0,0.08
2013-1-6,50,40,31,49,40,30,98,98,98,30.06,29.95,6,1,0,0.02
2013-1-7,56,38,27,56,37,26,98,97,86,30.15,30.03,6,2,0,0.00
2013-1-8,62,44,27,61,43,26,98,98,98,30.12,29.99,6,1,0,0.00
2013-1-9,60,53,48,59,53,48,98,98,98,30.14,30.04,6,1,0,0.03
2013-1-10,68,61,54,67,60,54,98,98,98,30.10,29.79,11,3,0,0.02
2013-1-11,70,66,63,70,65,62,98,98,98,29.86,29.78,16,4,0,0.18
2013-1-12,77,69,65,76,69,65,98,98,98,29.84,29.71,11,3,0,0.02
2013-1-30,48,41,38,47,35,-100,98,93,98,29.67,29.47,16,-48,0,2.46
2013-1-31,50,41,31,40,37,31,98,87,61,29.92,29.68,10,4,0,0.00
2013-2-1,42,34,22,41,27,18,98,78,43,30.17,29.87,11,3,0,0.00
2013-2-2,48,33,19,44,31,18,98,92,69,30.08,29.86,6,1,0,0.24
2013-2-3,58,41,29,51,36,29,98,87,47,29.92,29.77,14,2,0,0.01
2013-2-4,51,38,26,47,36,26,98,96,83,29.87,29.70,3,1,0,0.00
2013-2-5,58,47,38,58,47,37,98,98,98,29.78,29.67,5,1,0,0.00
2013-2-6,68,48,36,59,44,36,98,89,51,29.93,29.78,4,1,0,0.00
2013-2-7,49,47,42,49,46,41,98,98,98,29.85,29.67,10,2,0,0.43
2013-2-8,54,47,30,53,47,29,98,98,98,29.97,29.65,5,1,0,0.20
2013-2-9,63,42,25,52,39,25,98,91,67,30.05,29.91,5,1,0,0.00
2013-2-10,59,52,40,58,49,39,98,92,70,29.95,29.72,14,3,0,1.27
2013-2-11,58,53,47,57,52,46,98,98,98,29.88,29.72,6,1,0,0.19
2013-2-12,52,46,43,51,46,42,98,97,90,29.89,29.52,6,2,0,0.45
2013-2-13,49,45,37,49,45,36,98,98,98,29.75,29.43,11,2,0,0.09
2013-2-14,57,45,33,51,43,32,98,94,74,29.84,29.75,6,2,0,0.00
2013-2-15,49,33,29,48,33,28,98,98,97,29.86,29.78,6,0,0,0.00
2013-2-16,44,35,21,32,27,20,98,75,52,29.94,29.80,14,4,0,0.00
2013-2-17,50,33,17,35,25,16,98,79,42,30.06,29.94,8,1,0,0.00
2013-2-18,63,45,23,46,36,22,98,74,51,30.05,29.69,17,5,0,0.00
2013-2-19,57,48,36,52,40,30,98,78,44,29.93,29.68,14,4,0,0.43
2013-2-20,38,36,25,38,36,24,98,98,98,29.98,29.88,3,1,0,0.00
2013-2-21,67,46,30,55,40,29,98,82,43,29.92,29.61,9,3,0,1.06
2013-2-22,51,48,44,51,47,43,98,98,98,29.83,29.69,9,3,0,0.61
2013-2-23,60,48,37,60,48,36,98,98,98,29.72,29.58,5,2,0,0.39
2013-2-24,61,38,31,51,37,30,98,97,66,29.79,29.67,3,0,0,0.00
2013-2-25,61,48,36,56,47,36,98,97,82,29.70,29.40,11,4,0,0.46
2013-2-26,54,47,43,52,46,42,98,98,93,29.54,29.25,14,5,0,0.67
2013-2-27,60,49,41,50,45,40,98,85,64,29.64,29.55,11,4,0,0.00
2013-2-28,45,40,33,42,38,33,98,93,76,29.78,29.61,13,4,0,0.00
2013-3-1,43,39,36,42,39,35,98,98,94,29.78,29.73,7,3,0,0.00
2013-3-2,39,36,33,38,35,33,98,98,98,29.83,29.73,8,3,0,0.00
2013-3-3,45,34,24,33,30,24,98,87,56,29.88,29.80,13,3,0,0.00
2013-3-4,62,45,24,52,36,23,98,74,48,29.91,29.65,8,2,0,0.00
2013-3-5,67,53,37,66,53,36,98,98,93,29.75,29.41,14,6,0,0.16
2013-3-6,46,38,31,41,36,29,98,91,79,29.98,29.71,16,6,0,0.00
2013-3-7,58,40,25,46,36,24,98,89,61,30.05,29.96,7,2,0,0.00
2013-3-8,65,44,26,46,37,25,98,81,37,30.10,29.96,9,2,0,0.00
2013-3-9,68,50,33,55,45,33,98,83,56,30.02,29.84,6,1,0,0.00
2013-3-10,75,62,42,74,57,41,98,85,60,29.87,29.68,17,5,0,0.00
2013-3-11,64,55,39,62,54,38,98,97,87,29.69,29.52,16,4,0,1.04
2013-3-12,59,44,32,49,42,31,98,90,67,29.88,29.67,11,4,0,0.00
2013-3-13,55,43,30,44,34,29,98,75,51,30.08,29.86,13,3,0,0.00
2013-3-14,58,42,26,42,32,24,98,73,28,30.16,29.97,6,2,0,0.00
2013-3-15,78,56,29,61,47,28,98,76,52,29.99,29.69,10,3,0,0.00
2013-3-16,78,65,52,58,55,52,98,74,44,29.75,29.60,11,4,0,0.00
2013-3-17,72,63,52,70,61,51,98,95,81,29.73,29.59,11,4,0,0.00
2013-3-18,73,64,51,72,64,51,98,98,98,29.63,29.48,11,5,0,0.00
2013-3-19,66,53,39,53,46,39,98,79,47,29.84,29.61,8,2,0,0.00
2013-3-20,61,48,36,46,37,29,98,70,34,29.89,29.67,12,3,0,0.00
2013-3-21,50,40,30,42,34,27,98,81,50,29.81,29.66,12,3,0,0.00
2013-3-22,53,44,37,49,42,36,98,92,75,29.80,29.69,7,2,0,0.02
2013-3-23,59,50,44,58,50,44,98,98,98,29.71,29.38,9,3,0,1.11
2013-3-24,65,55,50,64,55,49,98,98,98,29.51,29.20,10,4,0,1.12
2013-4-11,68,61,63,64,55,-100,98,93,98,29.39,29.31,6,-46,0,2.32
2013-4-12,72,58,45,62,54,44,98,89,53,29.69,29.38,9,3,0,0.01
2013-4-13,79,58,40,63,51,39,98,82,42,29.81,29.67,9,1,0,0.00
2013-4-14,60,53,44,60,53,44,98,98,98,29.77,29.59,11,1,0,0.10
2013-4-15,79,65,56,78,64,55,98,98,98,29.80,29.63,8,1,0,0.00
2013-4-16,85,71,56,84,70,56,98,98,96,29.92,29.81,9,2,0,0.00
2013-4-17,87,73,63,86,72,62,98,98,98,29.91,29.75,13,2,0,0.00
2013-4-18,85,72,57,78,70,56,98,92,70,29.76,29.49,14,5,0,0.00
2013-4-19,74,56,41,74,55,40,98,98,98,29.86,29.42,14,4,0,2.56
2013-4-20,65,46,32,56,44,32,98,92,57,30.00,29.86,6,1,0,0.00
2013-4-21,76,54,34,61,48,34,98,84,51,30.05,29.90,8,2,0,0.00
2013-4-22,79,59,41,67,55,40,98,88,63,30.02,29.81,9,2,0,0.00
2013-4-23,80,62,45,71,58,44,98,88,70,29.93,29.73,8,2,0,0.00
2013-4-24,72,60,50,71,60,50,98,98,98,29.94,29.74,8,2,0,0.24
2013-4-25,73,54,38,60,49,38,98,86,45,30.08,29.94,7,2,0,0.00
2013-4-26,82,59,35,66,52,35,98,81,45,30.09,29.93,6,1,0,0.00
2013-4-27,78,65,57,77,64,56,98,98,98,30.00,29.78,14,3,0,1.41
2013-4-28,71,62,57,71,62,57,98,98,98,29.81,29.66,11,3,0,2.03
2013-4-29,81,64,53,76,63,52,98,96,70,29.77,29.63,10,1,0,0.01
2013-4-30,87,66,47,78,63,47,98,92,65,29.76,29.66,5,1,0,0.00
2013-5-1,73,66,57,73,66,56,98,98,98,29.86,29.75,8,3,0,0.00
2013-5-2,70,64,56,70,63,56,98,98,98,29.88,29.78,7,3,0,0.00
2013-5-3,73,64,59,72,64,59,98,98,98,29.79,29.59,11,3,0,0.39
2013-5-4,59,51,47,59,50,46,98,98,98,29.68,29.56,6,2,0,2.25
2013-5-5,68,52,42,67,52,42,98,98,98,29.61,29.48,6,1,0,0.67
2013-5-6,55,51,47,55,51,46,98,98,98,29.64,29.51,11,2,0,1.91
2013-5-7,75,58,47,75,57,47,98,98,94,29.73,29.62,8,1,0,0.02
2013-5-8,82,65,47,80,64,46,98,98,95,29.81,29.70,8,1,0,0.00
2013-5-9,86,69,52,85,68,51,98,98,93,29.86,29.73,11,1,0,0.00
2013-5-10,77,66,57,77,66,56,98,98,98,29.81,29.65,10,2,0,0.00
2013-5-11,81,66,56,80,66,56,98,98,98,29.71,29.61,7,1,0,0.28
2013-5-12,74,59,43,73,58,43,98,98,98,29.86,29.71,10,2,0,0.01
2013-5-13,74,50,37,74,50,37,98,98,98,30.00,29.85,6,1,0,0.00
2013-5-14,85,66,43,79,64,43,98,94,79,29.97,29.79,11,2,0,0.00
2013-5-15,89,72,59,81,69,59,98,90,65,29.90,29.73,8,2,0,0.00
2013-5-16,86,71,60,85,70,60,98,98,98,29.80,29.67,8,1,0,0.00
2013-5-17,81,70,61,80,70,61,98,98,98,29.80,29.69,6,1,0,0.98
2013-5-18,84,72,66,83,71,65,98,98,98,29.77,29.68,11,2,0,1.01
2013-5-19,84,71,63,83,71,62,98,98,98,29.78,29.66,10,2,0,0.01
2013-5-20,88,72,59,88,72,59,98,98,98,29.82,29.69,5,1,0,0.00
2013-5-21,94,76,62,91,76,61,98,98,90,29.75,29.57,6,1,0,0.00
2013-5-22,88,73,64,87,73,64,98,98,98,29.65,29.56,9,2,0,0.16
2013-5-23,87,74,61,84,71,61,98,91,64,29.75,29.63,8,2,0,0.00
2013-5-24,82,66,51,74,63,51,98,89,60,29.96,29.75,11,2,0,0.00
2013-5-25,85,65,46,77,60,46,98,87,52,30.05,29.89,7,1,0,0.00
2013-5-26,90,69,49,79,65,49,98,88,55,29.99,29.84,5,1,0,0.00
2013-5-27,89,72,54,85,69,53,98,93,73,29.94,29.78,7,1,0,0.00
2013-5-28,89,75,60,87,74,60,98,97,85,29.88,29.78,9,2,0,0.00
2013-5-29,91,78,63,89,76,62,98,96,82,29.89,29.77,8,2,0,0.00
2013-5-30,88,77,67,87,77,66,98,98,98,29.90,29.76,9,2,0,0.00
2013-5-31,89,78,66,88,77,66,98,98,88,29.86,29.72,9,3,0,0.00
2013-6-1,90,77,66,89,76,66,98,98,98,29.77,29.67,13,3,0,0.00
2013-6-2,89,77,68,89,77,68,98,98,97,29.70,29.57,6,1,0,0.03
2013-6-3,89,75,64,87,75,63,98,98,89,29.69,29.57,9,1,0,0.08
2013-6-4,94,76,60,89,74,59,98,95,76,29.73,29.63,5,1,0,0.00
2013-6-5,86,72,66,85,72,65,98,98,98,29.70,29.59,6,1,0,0.47
2013-6-6,85,73,64,85,72,63,98,98,98,29.61,29.47,6,1,0,0.00
2013-6-7,85,73,67,84,72,67,98,98,98,29.59,29.44,6,1,0,0.29
2013-6-8,88,74,66,87,74,65,98,98,96,29.76,29.57,11,1,0,0.00
2013-6-9,87,75,66,86,74,66,98,98,98,29.77,29.65,7,2,0,0.00
2013-6-10,92,78,68,91,77,68,98,98,98,29.73,29.62,9,3,0,0.50
2013-6-11,96,82,72,96,82,71,98,98,98,29.76,29.67,8,2,0,0.00
2013-6-12,98,83,71,97,82,70,98,98,98,29.78,29.68,5,1,0,0.00
2013-6-13,94,81,70,94,80,69,98,98,98,29.70,29.46,7,2,0,0.02
2013-6-14,93,76,63,91,75,62,98,95,79,29.72,29.59,6,1,0,0.00
2013-6-15,94,75,58,87,73,58,98,94,75,29.83,29.71,7,1,0,0.00
2013-6-16,92,77,62,91,76,61,98,98,98,29.83,29.67,7,1,0,0.41
2013-6-17,91,75,70,91,75,70,98,98,98,29.74,29.64,6,1,0,0.41
2013-6-18,86,75,69,86,74,69,98,98,98,29.65,29.56,8,2,0,1.12
2013-6-19,93,77,68,91,76,67,98,98,89,29.77,29.64,5,1,0,0.00
2013-6-20,93,78,64,92,77,63,98,98,93,29.89,29.77,6,1,0,0.00
2013-6-21,93,77,63,88,76,62,98,96,80,29.93,29.83,7,1,0,0.00
2013-6-22,93,78,64,86,76,63,98,93,75,29.93,29.77,10,1,0,0.00
2013-6-23,94,77,64,91,76,63,98,98,87,29.91,29.77,5,1,0,0.00
2013-6-24,86,75,68,86,74,67,98,98,98,29.92,29.80,7,2,0,0.00
2013-6-25,89,77,69,88,77,68,98,98,98,29.87,29.73,6,1,0,0.04
2013-6-26,93,80,68,92,80,67,98,98,98,29.79,29.63,8,1,0,0.00
2013-6-27,96,80,73,96,80,72,98,98,98,29.68,29.51,12,2,0,0.19
2013-6-28,92,82,72,91,81,71,98,98,98,29.56,29.40,9,2,0,0.00
2013-6-29,93,80,70,92,80,69,98,98,98,29.44,29.35,7,1,0,0.00
2013-6-30,93,79,66,93,79,65,98,98,98,29.49,29.40,6,1,0,0.00
2013-7-1,88,75,65,87,74,65,98,98,98,29.62,29.46,7,1,0,0.10
2013-7-2,90,76,64,89,75,63,98,98,98,29.75,29.60,7,1,0,0.08
2013-7-3,79,73,69,79,72,69,98,98,98,29.83,29.73,5,1,0,0.64
2013-7-4,78,73,70,78,72,69,98,98,98,29.82,29.73,12,2,0,0.60
2013-7-5,80,73,69,79,72,69,98,98,98,29.87,29.77,6,1,0,0.93
2013-7-6,77,72,70,76,71,70,98,98,98,29.85,29.77,5,1,0,2.23
2013-7-7,86,76,70,85,76,70,98,98,98,29.86,29.78,6,1,0,0.01
2013-7-8,90,76,70,89,76,69,98,98,98,29.90,29.81,4,1,0,0.40
2013-7-9,95,80,72,94,80,71,98,98,98,29.90,29.76,5,1,0,0.25
2013-7-10,93,79,71,93,78,71,98,98,98,29.80,29.64,6,1,0,0.25
2013-7-11,90,78,70,90,77,69,98,98,98,29.73,29.56,5,1,0,0.77
2013-7-12,91,79,69,90,79,69,98,98,98,29.66,29.56,9,1,0,0.00
2013-7-13,88,75,64,88,74,63,98,98,98,29.75,29.65,9,2,0,0.00
2013-7-14,91,78,70,90,77,70,98,98,98,29.87,29.73,7,2,0,0.00
2013-7-15,94,80,72,93,80,71,98,98,98,29.96,29.84,7,3,0,0.08
2013-7-16,94,79,68,93,79,67,98,98,98,30.01,29.91,6,1,0,0.00
2013-7-17,96,81,68,95,80,67,98,98,98,30.01,29.83,5,1,0,0.00
2013-7-18,94,80,68,93,80,68,98,98,98,29.91,29.74,6,1,0,0.00
2013-7-19,96,81,68,96,81,68,98,98,98,29.83,29.66,7,1,0,0.00
2013-7-20,94,77,70,93,77,70,98,98,98,29.75,29.63,8,1,0,0.04
2013-7-21,91,76,70,90,75,69,98,98,98,29.74,29.64,7,2,0,0.25
2013-7-22,89,77,69,88,77,69,98,98,98,29.71,29.58,10,2,0,0.00
2013-7-23,76,72,70,75,71,70,98,98,98,29.74,29.57,7,1,0,1.07
2013-7-24,86,76,70,85,75,69,98,98,98,29.63,29.52,5,1,0,0.01
2013-7-25,92,79,68,91,79,67,98,98,98,29.73,29.58,7,2,0,0.00
2013-7-26,92,77,63,92,76,63,98,98,98,29.77,29.66,6,1,0,0.00
2013-7-27,88,75,67,88,74,66,98,98,98,29.69,29.60,3,0,0,0.00
2013-7-28,90,78,68,89,77,68,98,98,98,29.77,29.63,4,1,0,0.00
2013-7-29,89,73,64,88,73,63,98,98,98,29.89,29.76,4,1,0,0.00
2013-7-30,94,77,59,94,76,59,98,98,98,29.93,29.79,7,1,0,0.00
2013-7-31,86,76,71,86,75,70,98,98,98,29.85,29.66,8,1,0,1.25
2013-8-1,90,78,70,90,77,69,98,98,98,29.71,29.62,7,1,0,0.00
2013-8-2,94,78,65,94,77,64,98,98,98,29.75,29.66,4,1,0,0.00
2013-8-3,89,76,63,88,75,62,98,98,98,29.79,29.70,4,0,0,0.10
2013-8-4,90,78,69,89,78,69,98,98,98,29.78,29.37,6,1,0,0.95
2013-8-5,88,75,66,87,74,66,98,98,98,29.78,29.68,4,0,0,0.00
2013-8-6,86,75,70,85,75,69,98,98,98,29.74,29.65,4,0,0,0.15
2013-8-7,92,78,71,91,78,71,98,98,98,29.74,29.63,7,1,0,0.17
2013-8-8,94,79,68,93,78,68,98,98,98,29.75,29.66,7,1,0,0.01
2013-8-9,92,80,70,91,79,70,98,98,98,29.79,29.68,8,1,0,0.00
2013-8-10,92,79,71,92,79,71,98,98,98,29.84,29.77,7,1,0,0.00
2013-8-11,92,79,70,92,79,69,98,98,98,29.88,29.77,5,1,0,0.62
2013-8-12,94,80,72,93,79,71,98,98,98,29.83,29.70,5,1,0,0.24
2013-8-13,92,79,72,91,79,71,98,98,98,29.72,29.59,7,2,0,0.33
2013-8-14,85,75,64,84,74,64,98,98,98,29.72,29.63,5,1,0,0.00
2013-8-15,79,70,64,78,70,63,98,98,98,29.78,29.69,9,1,0,0.00
2013-8-16,74,68,64,73,68,63,98,98,98,29.81,29.73,8,1,0,0.00
2013-8-17,72,68,66,71,67,65,98,98,98,29.84,29.76,6,2,0,0.00
2013-8-18,78,73,67,77,72,66,98,98,98,29.87,29.79,4,1,0,0.31
2013-8-19,92,78,70,91,77,69,98,98,98,29.83,29.71,5,1,0,0.20
2013-8-20,85,77,70,84,76,69,98,98,98,29.86,29.76,4,1,0,0.04
2013-8-21,88,78,71,88,77,70,98,98,98,29.91,29.80,6,1,0,0.00
2013-8-22,92,79,68,92,78,67,98,98,98,29.88,29.74,5,1,0,0.00
2013-8-23,93,80,69,92,79,68,98,98,98,29.80,29.67,4,1,0,0.00
2013-8-24,90,78,68,89,77,67,98,98,98,29.95,29.76,9,2,0,0.00
2013-8-25,89,75,64,88,74,63,98,98,98,30.05,29.93,8,2,0,0.00
2013-8-26,88,73,58,88,72,57,98,98,98,30.01,29.86,8,1,0,0.00
2013-8-27,71,69,68,71,68,67,98,98,98,29.79,29.77,0,0,0,0.00
2013-8-28,94,77,64,93,77,63,98,98,98,29.79,29.68,6,1,0,0.00
2013-8-29,93,80,68,93,79,68,98,98,98,29.77,29.65,8,1,0,0.00
2013-8-30,94,79,70,93,79,70,98,98,98,29.72,29.62,4,1,0,0.00
2013-8-31,96,80,72,95,80,71,98,98,98,29.69,29.56,4,1,0,0.00
2013-9-1,88,77,71,88,76,71,98,98,98,29.64,29.55,10,1,0,0.00
2013-9-2,88,76,68,87,76,68,98,98,98,29.72,29.53,12,1,0,2.72
2013-9-3,92,78,67,91,78,66,98,98,98,29.70,29.58,7,1,0,0.00
2013-9-4,89,74,62,89,74,61,98,98,98,29.82,29.69,4,1,0,0.00
2013-9-5,90,74,61,90,73,60,98,98,98,29.87,29.77,6,1,0,0.00
2013-9-6,91,74,61,91,74,61,98,98,98,29.86,29.73,5,1,0,0.00
2013-9-7,92,79,64,91,78,63,98,98,98,29.83,29.70,3,1,0,0.00
2013-9-8,91,76,62,91,76,62,98,98,98,29.74,29.65,5,0,0,0.00
2013-9-9,93,78,68,93,78,67,98,98,98,29.80,29.70,4,1,0,0.00
2013-9-10,92,78,68,91,78,68,98,98,98,29.91,29.80,6,1,0,0.00
2013-9-11,93,76,64,93,76,63,98,98,98,29.94,29.78,5,1,0,0.00
2013-9-12,92,77,64,91,76,64,98,98,98,29.81,29.62,6,1,0,0.11
2013-9-13,86,73,58,85,72,57,98,98,98,29.66,29.54,7,1,0,0.00
2013-9-14,83,65,50,82,65,50,98,98,98,29.77,29.66,5,1,0,0.00
2013-9-15,87,69,54,86,69,54,98,98,98,29.86,29.77,7,1,0,0.00
2013-9-16,86,71,61,86,71,61,98,98,98,29.87,29.76,5,1,0,0.00
2013-9-17,83,71,60,83,70,59,98,98,98,29.90,29.79,10,2,0,0.00
2013-9-18,85,71,59,84,70,59,98,98,98,29.93,29.79,7,1,0,0.00
2013-9-19,88,71,59,87,71,58,98,98,98,29.90,29.75,5,1,0,0.00
2013-9-20,88,73,59,87,72,59,98,98,98,29.79,29.57,6,1,0,0.00
2013-9-21,74,70,60,74,69,60,98,98,98,29.57,29.46,10,2,0,0.91
2013-9-22,82,65,51,82,64,51,98,98,98,29.60,29.52,7,1,0,0.00
2013-9-23,85,67,52,85,67,51,98,98,98,29.70,29.60,6,1,0,0.00
2013-9-24,73,67,61,72,67,61,98,98,98,29.71,29.56,8,1,0,0.06
2013-9-25,76,69,66,75,68,65,98,98,98,29.58,29.50,5,1,0,0.03
2013-9-26,83,70,59,82,69,58,98,98,98,29.72,29.58,6,1,0,0.00
2013-9-27,84,67,56,83,67,56,98,98,98,29.85,29.72,6,1,0,0.00
2013-9-28,81,65,52,80,64,51,98,98,98,29.93,29.77,7,2,0,0.00
2013-9-29,79,64,51,78,63,50,98,98,98,29.86,29.72,7,1,0,0.00
2013-9-30,79,64,53,79,63,52,98,98,98,29.81,29.68,7,1,0,0.00
2013-10-1,85,68,56,85,67,55,98,98,98,29.86,29.73,5,1,0,0.00
2013-10-2,86,70,58,86,70,57,98,98,98,29.88,29.74,4,0,0,0.00
2013-10-3,86,72,60,85,72,60,98,98,98,29.84,29.72,8,1,0,0.00
2013-10-4,89,72,59,89,72,58,98,98,98,29.86,29.74,5,1,0,0.00
2013-10-5,88,72,60,88,72,60,98,98,98,29.83,29.68,6,1,0,0.00
2013-10-6,84,71,60,83,70,60,98,98,98,29.69,29.53,13,2,0,2.43
2013-10-7,73,62,50,73,61,50,98,98,98,29.72,29.60,9,2,0,0.21
2013-10-8,80,63,48,79,63,47,98,98,98,29.82,29.71,8,2,0,0.00
2013-10-9,80,66,57,79,66,56,98,98,98,29.90,29.78,6,2,0,0.00
2013-10-10,81,65,54,80,65,53,98,98,98,29.87,29.72,5,0,0,0.00
2013-10-11,82,65,54,81,65,53,98,98,98,29.81,29.68,6,1,0,0.00
2013-10-12,82,64,49,81,64,49,98,98,98,29.82,29.72,5,1,0,0.00
2013-10-13,84,66,53,83,66,52,98,98,98,29.93,29.82,6,1,0,0.00
2013-10-14,81,65,53,80,65,53,98,98,98,29.95,29.79,5,1,0,0.00
2013-10-15,72,62,53,72,61,52,98,98,98,29.86,29.74,3,0,0,0.00
2013-10-16,76,65,54,76,64,54,98,98,98,29.79,29.65,5,0,0,0.00
2013-10-17,73,66,56,72,66,55,98,98,98,29.70,29.60,8,2,0,0.55
2013-10-18,70,57,45,69,56,44,98,98,98,29.80,29.66,6,0,0,0.00
2013-10-19,69,59,50,69,58,50,98,98,98,29.74,29.62,6,1,0,0.00
2013-10-20,68,51,38,67,50,38,98,98,98,29.82,29.71,8,1,0,0.00
2013-10-21,71,53,35,71,52,34,98,98,98,29.86,29.73,5,0,0,0.00
2013-10-22,75,60,48,74,59,48,98,98,98,29.75,29.57,5,1,0,0.00
2013-10-23,61,50,37,61,50,36,98,98,98,29.85,29.60,11,2,0,0.00
2013-10-24,63,47,33,62,46,32,98,98,98,30.00,29.84,5,0,0,0.00
2013-10-25,58,43,30,57,43,29,98,98,98,30.19,30.00,9,2,0,0.00
2013-10-26,62,42,26,62,42,25,98,98,98,30.07,29.87,6,1,0,0.00
2013-10-27,70,54,40,70,53,39,98,98,98,29.90,29.80,5,0,0,0.03
2013-10-28,69,58,51,68,58,50,98,98,98,29.99,29.84,4,0,0,0.14
2013-10-29,77,61,52,76,61,51,98,98,98,30.04,29.92,5,0,0,0.00
2013-10-30,79,63,54,78,63,53,98,98,98,30.01,29.83,5,0,0,0.00
2013-10-31,76,67,56,75,67,56,98,98,98,29.83,29.45,18,4,0,0.04
2013-11-1,75,66,46,74,65,46,98,98,98,29.56,29.43,10,2,0,0.31
2013-11-2,68,48,42,67,47,41,98,98,98,29.82,29.56,5,0,0,0.00
2013-11-3,65,47,35,64,46,34,98,98,98,30.02,29.82,5,1,0,0.00
2013-11-4,69,50,32,68,50,32,98,98,98,30.13,30.01,10,2,0,0.00
2013-11-5,67,53,40,66,52,39,98,98,98,30.16,30.01,8,2,0,0.00
2013-11-6,75,62,48,74,62,47,98,98,98,30.01,29.78,9,2,0,0.00
2013-11-7,65,53,34,64,52,34,98,98,98,30.02,29.76,13,3,0,0.37
2013-11-8,61,46,33,61,45,32,98,98,98,30.10,29.97,10,2,0,0.00
2013-11-9,60,46,31,59,45,30,98,98,98,30.08,29.93,4,0,0,0.00
2013-11-10,73,54,38,73,54,38,98,98,98,30.04,29.92,5,1,0,0.00
2013-11-11,70,48,32,70,47,31,98,98,98,30.05,29.88,4,1,0,0.00
2013-11-12,58,42,29,57,41,28,98,98,98,30.25,29.88,11,3,0,0.00
2013-11-13,51,35,22,51,34,22,98,98,98,30.36,30.19,7,2,0,0.00
2013-11-14,60,36,18,60,36,17,98,98,98,30.22,29.99,7,1,0,0.00
2013-11-15,63,47,31,62,46,30,98,98,98,29.99,29.84,5,1,0,0.10
2013-11-16,68,58,48,68,57,48,98,98,98,29.92,29.79,6,1,0,0.00
2013-11-17,71,68,64,70,67,63,98,98,98,29.78,29.58,12,5,0,0.03
2013-11-18,70,59,40,70,59,39,98,98,98,29.85,29.60,13,2,0,0.02
2013-11-19,59,46,32,58,45,31,98,98,98,29.92,29.82,10,2,0,0.00
2013-11-20,63,47,28,62,47,27,98,98,98,30.01,29.87,10,2,0,0.00
2013-11-21,69,59,53,68,58,52,98,98,98,30.07,29.95,7,2,0,0.00
2013-11-22,67,60,54,66,59,54,98,98,98,30.03,29.90,5,1,0,0.18
2013-11-23,58,50,36,58,49,36,98,98,98,30.08,29.89,10,4,0,0.00
2013-11-24,45,34,25,44,33,25,98,98,98,30.27,30.08,9,3,0,0.00
2013-11-25,47,36,22,47,36,21,98,98,98,30.17,29.87,8,2,0,1.08
2013-11-26,47,41,36,47,41,35,98,98,98,29.86,29.46,10,3,0,2.95
2013-11-27,39,34,23,38,34,22,98,98,98,30.07,29.53,14,5,0,0.03
2013-11-28,48,29,16,47,28,15,98,98,98,30.21,30.08,4,1,0,0.00
2013-11-29,58,34,17,58,34,17,99,98,98,30.29,30.17,6,1,0,0.00
2013-11-30,58,38,22,58,38,22,99,99,99,30.27,30.04,7,1,0,0.00
2013-12-1,58,43,27,57,43,27,99,99,99,30.03,29.71,4,0,0,0.00
2013-12-2,56,50,45,56,50,45,99,99,99,29.71,29.52,4,0,0,0.59
2013-12-3,62,55,50,62,55,50,99,99,99,29.59,29.50,3,0,0,0.06
2013-12-4,74,64,54,73,63,54,99,99,99,29.70,29.58,6,2,0,0.00
2013-12-5,75,70,65,75,69,65,99,99,99,29.75,29.64,12,3,0,0.34
2013-12-6,77,64,43,77,64,42,99,99,99,29.90,29.61,21,5,0,0.37
2013-12-7,45,41,39,44,41,38,99,99,99,30.09,29.89,9,3,0,0.00
2013-12-8,51,47,41,51,47,40,99,99,99,29.99,29.81,6,1,0,2.33
2013-12-9,54,50,47,54,50,47,99,99,99,29.89,29.72,4,1,0,0.86
2013-12-10,48,38,25,48,38,25,99,99,99,30.09,29.71,9,2,0,0.49
2013-12-11,53,34,22,53,34,22,99,99,99,30.19,30.08,5,1,0,0.00
2013-12-12,46,32,24,45,32,24,99,99,99,30.27,30.13,5,1,0,0.00
2013-12-13,52,37,20,52,36,20,99,99,99,30.13,29.84,4,0,0,0.00
2013-12-14,55,50,39,55,50,39,99,99,99,29.85,29.52,9,2,0,0.85
2013-12-15,43,38,29,43,37,29,99,99,99,29.98,29.67,11,4,0,0.00
2013-12-16,56,40,28,56,39,28,99,99,99,30.04,29.91,7,1,0,0.00
2013-12-17,62,48,34,62,48,34,99,99,99,29.99,29.82,8,2,0,0.00
2013-12-18,43,30,25,42,30,25,99,99,99,30.11,30.00,2,0,0,0.00
2013-12-19,45,30,24,45,30,23,99,99,99,30.05,29.87,2,0,0,0.00
2013-12-20,69,54,33,68,54,33,99,99,99,29.91,29.74,8,2,0,0.00
2013-12-21,76,67,52,75,67,52,99,99,99,29.75,29.54,17,6,0,0.00
2013-12-22,73,58,55,73,58,54,99,99,99,29.80,29.50,18,2,0,1.71
2013-12-23,54,44,28,54,44,28,99,99,99,30.11,29.76,9,4,0,0.13
2013-12-24,40,30,20,39,30,20,99,99,99,30.22,30.10,9,2,0,0.00
2013-12-25,51,32,17,50,31,17,99,99,99,30.19,30.03,8,1,0,0.00
2013-12-26,53,35,24,53,35,24,99,99,99,30.12,30.02,4,0,0,0.00
2013-12-27,54,35,23,54,35,23,99,99,99,30.20,30.07,4,1,0,0.00
2013-12-28,41,37,30,41,37,30,99,99,99,30.10,29.65,5,1,0,1.52
2013-12-29,50,40,36,50,40,35,99,99,99,29.81,29.61,3,0,0,0.13
2013-12-30,50,42,34,50,41,34,99,99,99,29.98,29.79,4,1,0,0.00
2013-12-31,46,37,30,46,37,29,99,99,99,30.18,29.96,7,1,0,0.00
2014-1-1,53,40,26,53,39,26,99,99,99,30.09,29.81,5,1,0,0.00
2014-1-2,50,40,25,50,40,25,99,99,99,30.00,29.56,16,4,0,0.39